sensor_id;sensor_type;location;lat;lon;timestamp;P1;durP1;ratioP1;P2;durP2;ratioP2
12469;SDS011;36499;46.484;13.832;2022-10-04T00:01:47;6.43;;;2.03;;
12469;SDS011;36499;46.484;13.832;2022-10-04T00:04:21;4.80;;;1.80;;
12469;SDS011;36499;46.484;13.832;2022-10-04T00:06:54;4.93;;;1.83;;
12469;SDS011;36499;46.484;13.832;2022-10-04T00:09:30;2.43;;;1.73;;
12469;SDS011;36499;46.484;13.832;2022-10-04T00:12:01;5.47;;;2.17;;
12469;SDS011;36499;46.484;13.832;2022-10-04T00:14:32;3.10;;;1.83;;
12469;SDS011;36499;46.484;13.832;2022-10-04T00:17:09;3.13;;;2.20;;
12469;SDS011;36499;46.484;13.832;2022-10-04T00:19:45;3.60;;;2.00;;
12469;SDS011;36499;46.484;13.832;2022-10-04T00:22:17;2.73;;;1.60;;
12469;SDS011;36499;46.484;13.832;2022-10-04T00:28:13;2.43;;;2.00;;
12469;SDS011;36499;46.484;13.832;2022-10-04T00:33:54;7.17;;;3.07;;
12469;SDS011;36499;46.484;13.832;2022-10-04T00:37:01;7.60;;;3.93;;
12469;SDS011;36499;46.484;13.832;2022-10-04T00:39:41;5.70;;;3.00;;
12469;SDS011;36499;46.484;13.832;2022-10-04T00:45:15;2.00;;;1.50;;
12469;SDS011;36499;46.484;13.832;2022-10-04T00:48:00;2.30;;;1.70;;
12469;SDS011;36499;46.484;13.832;2022-10-04T00:50:56;7.80;;;3.07;;
12469;SDS011;36499;46.484;13.832;2022-10-04T00:53:39;8.00;;;3.73;;
12469;SDS011;36499;46.484;13.832;2022-10-04T00:56:19;10.13;;;4.50;;
12469;SDS011;36499;46.484;13.832;2022-10-04T00:59:04;8.00;;;4.43;;
12469;SDS011;36499;46.484;13.832;2022-10-04T01:01:58;10.20;;;4.60;;
12469;SDS011;36499;46.484;13.832;2022-10-04T01:04:41;5.67;;;2.30;;
12469;SDS011;36499;46.484;13.832;2022-10-04T01:07:15;4.77;;;2.77;;
12469;SDS011;36499;46.484;13.832;2022-10-04T01:09:53;6.53;;;2.23;;
12469;SDS011;36499;46.484;13.832;2022-10-04T01:12:30;5.43;;;2.90;;
12469;SDS011;36499;46.484;13.832;2022-10-04T01:15:10;4.90;;;1.63;;
12469;SDS011;36499;46.484;13.832;2022-10-04T01:20:37;13.30;;;5.50;;
12469;SDS011;36499;46.484;13.832;2022-10-04T01:29:13;4.40;;;1.90;;
12469;SDS011;36499;46.484;13.832;2022-10-04T01:31:45;2.57;;;1.60;;
12469;SDS011;36499;46.484;13.832;2022-10-04T01:34:15;2.97;;;1.50;;
12469;SDS011;36499;46.484;13.832;2022-10-04T01:36:46;3.83;;;1.40;;
12469;SDS011;36499;46.484;13.832;2022-10-04T01:39:17;5.67;;;2.27;;
12469;SDS011;36499;46.484;13.832;2022-10-04T01:41:51;5.13;;;2.60;;
12469;SDS011;36499;46.484;13.832;2022-10-04T01:44:26;5.50;;;2.77;;
12469;SDS011;36499;46.484;13.832;2022-10-04T01:47:04;5.30;;;2.43;;
12469;SDS011;36499;46.484;13.832;2022-10-04T01:49:37;3.20;;;2.10;;
12469;SDS011;36499;46.484;13.832;2022-10-04T01:52:09;4.73;;;2.10;;
12469;SDS011;36499;46.484;13.832;2022-10-04T01:54:44;3.63;;;2.10;;
12469;SDS011;36499;46.484;13.832;2022-10-04T01:57:20;6.43;;;2.30;;
12469;SDS011;36499;46.484;13.832;2022-10-04T01:59:58;5.73;;;2.40;;
12469;SDS011;36499;46.484;13.832;2022-10-04T02:02:32;4.70;;;2.00;;
12469;SDS011;36499;46.484;13.832;2022-10-04T02:05:07;4.83;;;2.10;;
12469;SDS011;36499;46.484;13.832;2022-10-04T02:07:41;6.50;;;2.53;;
12469;SDS011;36499;46.484;13.832;2022-10-04T02:10:10;3.13;;;1.30;;
12469;SDS011;36499;46.484;13.832;2022-10-04T02:12:48;1.67;;;1.40;;
12469;SDS011;36499;46.484;13.832;2022-10-04T02:15:20;3.93;;;1.93;;
12469;SDS011;36499;46.484;13.832;2022-10-04T02:17:52;2.40;;;1.47;;
12469;SDS011;36499;46.484;13.832;2022-10-04T02:20:23;2.87;;;1.67;;
12469;SDS011;36499;46.484;13.832;2022-10-04T02:22:54;2.77;;;1.80;;
12469;SDS011;36499;46.484;13.832;2022-10-04T02:25:27;1.93;;;1.30;;
12469;SDS011;36499;46.484;13.832;2022-10-04T02:27:57;3.83;;;1.93;;
12469;SDS011;36499;46.484;13.832;2022-10-04T02:30:24;3.63;;;1.70;;
12469;SDS011;36499;46.484;13.832;2022-10-04T02:32:53;4.30;;;1.90;;
12469;SDS011;36499;46.484;13.832;2022-10-04T02:35:22;2.70;;;1.60;;
12469;SDS011;36499;46.484;13.832;2022-10-04T02:37:53;2.87;;;1.40;;
12469;SDS011;36499;46.484;13.832;2022-10-04T02:40:32;2.80;;;1.70;;
12469;SDS011;36499;46.484;13.832;2022-10-04T02:43:09;4.33;;;1.87;;
12469;SDS011;36499;46.484;13.832;2022-10-04T02:45:45;3.60;;;1.90;;
12469;SDS011;36499;46.484;13.832;2022-10-04T02:48:32;3.97;;;2.10;;
12469;SDS011;36499;46.484;13.832;2022-10-04T02:51:17;4.63;;;1.97;;
12469;SDS011;36499;46.484;13.832;2022-10-04T02:54:01;2.93;;;2.13;;
12469;SDS011;36499;46.484;13.832;2022-10-04T02:56:36;2.83;;;1.97;;
12469;SDS011;36499;46.484;13.832;2022-10-04T02:59:05;2.40;;;1.80;;
12469;SDS011;36499;46.484;13.832;2022-10-04T03:01:40;2.40;;;1.83;;
12469;SDS011;36499;46.484;13.832;2022-10-04T03:04:16;1.73;;;1.50;;
12469;SDS011;36499;46.484;13.832;2022-10-04T03:06:48;2.80;;;2.33;;
12469;SDS011;36499;46.484;13.832;2022-10-04T03:09:18;2.57;;;2.10;;
12469;SDS011;36499;46.484;13.832;2022-10-04T03:11:48;5.00;;;2.87;;
12469;SDS011;36499;46.484;13.832;2022-10-04T03:14:20;4.77;;;2.17;;
12469;SDS011;36499;46.484;13.832;2022-10-04T03:16:52;3.37;;;1.50;;
12469;SDS011;36499;46.484;13.832;2022-10-04T03:19:24;3.87;;;1.50;;
12469;SDS011;36499;46.484;13.832;2022-10-04T03:22:00;1.90;;;1.57;;
12469;SDS011;36499;46.484;13.832;2022-10-04T03:24:32;3.10;;;1.60;;
12469;SDS011;36499;46.484;13.832;2022-10-04T03:27:12;5.87;;;2.30;;
12469;SDS011;36499;46.484;13.832;2022-10-04T03:29:46;9.57;;;4.40;;
12469;SDS011;36499;46.484;13.832;2022-10-04T03:32:15;10.67;;;3.60;;
12469;SDS011;36499;46.484;13.832;2022-10-04T03:34:48;12.03;;;4.27;;
12469;SDS011;36499;46.484;13.832;2022-10-04T03:37:21;12.33;;;4.20;;
12469;SDS011;36499;46.484;13.832;2022-10-04T03:39:52;6.63;;;3.73;;
12469;SDS011;36499;46.484;13.832;2022-10-04T03:42:23;9.93;;;4.87;;
12469;SDS011;36499;46.484;13.832;2022-10-04T03:44:54;4.70;;;2.80;;
12469;SDS011;36499;46.484;13.832;2022-10-04T03:47:28;1.70;;;1.60;;
12469;SDS011;36499;46.484;13.832;2022-10-04T03:50:02;4.23;;;1.60;;
12469;SDS011;36499;46.484;13.832;2022-10-04T03:52:41;10.27;;;4.90;;
12469;SDS011;36499;46.484;13.832;2022-10-04T03:55:15;11.37;;;5.60;;
12469;SDS011;36499;46.484;13.832;2022-10-04T03:57:44;5.93;;;2.50;;
12469;SDS011;36499;46.484;13.832;2022-10-04T04:00:15;2.70;;;2.10;;
12469;SDS011;36499;46.484;13.832;2022-10-04T04:02:44;6.13;;;2.93;;
12469;SDS011;36499;46.484;13.832;2022-10-04T04:05:19;5.90;;;2.17;;
12469;SDS011;36499;46.484;13.832;2022-10-04T04:07:58;6.53;;;3.10;;
12469;SDS011;36499;46.484;13.832;2022-10-04T04:10:34;4.70;;;2.67;;
12469;SDS011;36499;46.484;13.832;2022-10-04T04:13:10;5.23;;;2.20;;
12469;SDS011;36499;46.484;13.832;2022-10-04T04:15:51;3.40;;;1.67;;
12469;SDS011;36499;46.484;13.832;2022-10-04T04:18:21;2.70;;;1.70;;
12469;SDS011;36499;46.484;13.832;2022-10-04T04:20:51;3.20;;;1.67;;
12469;SDS011;36499;46.484;13.832;2022-10-04T04:23:24;3.80;;;1.47;;
12469;SDS011;36499;46.484;13.832;2022-10-04T04:25:57;1.70;;;1.40;;
12469;SDS011;36499;46.484;13.832;2022-10-04T04:28:43;2.70;;;1.50;;
12469;SDS011;36499;46.484;13.832;2022-10-04T04:31:19;3.70;;;1.60;;
12469;SDS011;36499;46.484;13.832;2022-10-04T04:33:52;8.20;;;1.77;;
12469;SDS011;36499;46.484;13.832;2022-10-04T04:36:25;4.43;;;1.90;;
12469;SDS011;36499;46.484;13.832;2022-10-04T04:39:05;2.40;;;1.40;;
12469;SDS011;36499;46.484;13.832;2022-10-04T04:41:57;3.80;;;1.83;;
12469;SDS011;36499;46.484;13.832;2022-10-04T04:44:25;2.83;;;1.63;;
12469;SDS011;36499;46.484;13.832;2022-10-04T04:46:56;1.60;;;1.50;;
12469;SDS011;36499;46.484;13.832;2022-10-04T04:49:25;1.63;;;1.47;;
12469;SDS011;36499;46.484;13.832;2022-10-04T04:51:55;2.80;;;1.40;;
12469;SDS011;36499;46.484;13.832;2022-10-04T04:54:24;3.70;;;1.50;;
12469;SDS011;36499;46.484;13.832;2022-10-04T04:56:53;3.30;;;1.50;;
12469;SDS011;36499;46.484;13.832;2022-10-04T04:59:22;5.80;;;1.87;;
12469;SDS011;36499;46.484;13.832;2022-10-04T05:01:52;2.40;;;1.63;;
12469;SDS011;36499;46.484;13.832;2022-10-04T05:04:21;3.03;;;1.77;;
12469;SDS011;36499;46.484;13.832;2022-10-04T05:07:00;2.70;;;1.70;;
12469;SDS011;36499;46.484;13.832;2022-10-04T05:09:34;4.47;;;1.80;;
12469;SDS011;36499;46.484;13.832;2022-10-04T05:12:05;4.10;;;1.70;;
12469;SDS011;36499;46.484;13.832;2022-10-04T05:14:39;2.50;;;1.30;;
12469;SDS011;36499;46.484;13.832;2022-10-04T05:17:15;2.37;;;1.50;;
12469;SDS011;36499;46.484;13.832;2022-10-04T05:19:49;2.20;;;1.53;;
12469;SDS011;36499;46.484;13.832;2022-10-04T05:22:22;2.00;;;1.63;;
12469;SDS011;36499;46.484;13.832;2022-10-04T05:24:52;1.60;;;1.50;;
12469;SDS011;36499;46.484;13.832;2022-10-04T05:27:25;6.07;;;2.20;;
12469;SDS011;36499;46.484;13.832;2022-10-04T05:30:00;3.73;;;2.50;;
12469;SDS011;36499;46.484;13.832;2022-10-04T05:32:36;7.33;;;2.80;;
12469;SDS011;36499;46.484;13.832;2022-10-04T05:35:25;5.23;;;2.50;;
12469;SDS011;36499;46.484;13.832;2022-10-04T05:37:58;5.83;;;3.73;;
12469;SDS011;36499;46.484;13.832;2022-10-04T05:40:37;4.80;;;2.73;;
12469;SDS011;36499;46.484;13.832;2022-10-04T05:43:19;5.77;;;3.27;;
12469;SDS011;36499;46.484;13.832;2022-10-04T05:46:11;2.50;;;1.97;;
12469;SDS011;36499;46.484;13.832;2022-10-04T05:48:44;5.30;;;1.93;;
12469;SDS011;36499;46.484;13.832;2022-10-04T05:51:21;5.90;;;2.70;;
12469;SDS011;36499;46.484;13.832;2022-10-04T05:53:52;4.70;;;2.40;;
12469;SDS011;36499;46.484;13.832;2022-10-04T05:59:46;5.90;;;2.90;;
12469;SDS011;36499;46.484;13.832;2022-10-04T06:02:41;3.03;;;2.63;;
12469;SDS011;36499;46.484;13.832;2022-10-04T06:05:48;3.23;;;2.43;;
12469;SDS011;36499;46.484;13.832;2022-10-04T06:08:27;3.73;;;2.10;;
12469;SDS011;36499;46.484;13.832;2022-10-04T06:11:17;3.60;;;2.07;;
12469;SDS011;36499;46.484;13.832;2022-10-04T06:17:28;5.00;;;2.03;;
12469;SDS011;36499;46.484;13.832;2022-10-04T06:23:19;3.33;;;2.10;;
12469;SDS011;36499;46.484;13.832;2022-10-04T06:25:52;5.17;;;2.20;;
12469;SDS011;36499;46.484;13.832;2022-10-04T06:28:27;2.60;;;1.83;;
12469;SDS011;36499;46.484;13.832;2022-10-04T06:31:06;4.77;;;2.37;;
12469;SDS011;36499;46.484;13.832;2022-10-04T06:43:55;4.83;;;1.97;;
12469;SDS011;36499;46.484;13.832;2022-10-04T06:46:53;2.07;;;1.80;;
12469;SDS011;36499;46.484;13.832;2022-10-04T06:49:47;3.47;;;1.93;;
12469;SDS011;36499;46.484;13.832;2022-10-04T06:56:08;6.03;;;1.67;;
12469;SDS011;36499;46.484;13.832;2022-10-04T06:59:04;5.23;;;1.70;;
12469;SDS011;36499;46.484;13.832;2022-10-04T07:02:12;1.67;;;1.57;;
12469;SDS011;36499;46.484;13.832;2022-10-04T07:04:48;3.83;;;1.60;;
12469;SDS011;36499;46.484;13.832;2022-10-04T07:07:28;5.03;;;1.80;;
12469;SDS011;36499;46.484;13.832;2022-10-04T07:10:03;3.60;;;1.47;;
12469;SDS011;36499;46.484;13.832;2022-10-04T07:13:04;1.70;;;1.50;;
12469;SDS011;36499;46.484;13.832;2022-10-04T07:15:55;2.10;;;1.53;;
12469;SDS011;36499;46.484;13.832;2022-10-04T07:18:32;3.67;;;1.60;;
12469;SDS011;36499;46.484;13.832;2022-10-04T07:21:08;2.70;;;1.60;;
12469;SDS011;36499;46.484;13.832;2022-10-04T07:23:43;1.63;;;1.40;;
12469;SDS011;36499;46.484;13.832;2022-10-04T07:26:20;2.20;;;1.63;;
12469;SDS011;36499;46.484;13.832;2022-10-04T07:28:55;3.67;;;1.50;;
12469;SDS011;36499;46.484;13.832;2022-10-04T07:31:46;2.30;;;1.80;;
12469;SDS011;36499;46.484;13.832;2022-10-04T07:34:20;2.87;;;1.57;;
12469;SDS011;36499;46.484;13.832;2022-10-04T07:36:52;3.13;;;1.80;;
12469;SDS011;36499;46.484;13.832;2022-10-04T07:39:25;6.90;;;2.20;;
12469;SDS011;36499;46.484;13.832;2022-10-04T07:42:00;6.07;;;1.70;;
12469;SDS011;36499;46.484;13.832;2022-10-04T07:44:46;2.40;;;1.80;;
12469;SDS011;36499;46.484;13.832;2022-10-04T07:47:28;2.10;;;1.53;;
12469;SDS011;36499;46.484;13.832;2022-10-04T07:49:57;4.10;;;1.43;;
12469;SDS011;36499;46.484;13.832;2022-10-04T07:52:42;2.47;;;1.70;;
12469;SDS011;36499;46.484;13.832;2022-10-04T07:55:21;2.73;;;1.57;;
12469;SDS011;36499;46.484;13.832;2022-10-04T07:58:01;3.60;;;2.60;;
12469;SDS011;36499;46.484;13.832;2022-10-04T08:00:55;3.03;;;2.20;;
12469;SDS011;36499;46.484;13.832;2022-10-04T08:03:40;5.37;;;2.10;;
12469;SDS011;36499;46.484;13.832;2022-10-04T08:06:52;3.47;;;2.27;;
12469;SDS011;36499;46.484;13.832;2022-10-04T08:09:50;2.53;;;1.57;;
12469;SDS011;36499;46.484;13.832;2022-10-04T08:12:29;4.70;;;1.80;;
12469;SDS011;36499;46.484;13.832;2022-10-04T08:18:06;3.87;;;1.80;;
12469;SDS011;36499;46.484;13.832;2022-10-04T08:21:05;1.93;;;1.60;;
12469;SDS011;36499;46.484;13.832;2022-10-04T08:23:43;3.07;;;1.70;;
12469;SDS011;36499;46.484;13.832;2022-10-04T08:26:43;1.90;;;1.57;;
12469;SDS011;36499;46.484;13.832;2022-10-04T08:29:45;2.60;;;1.60;;
12469;SDS011;36499;46.484;13.832;2022-10-04T08:32:47;3.40;;;1.57;;
12469;SDS011;36499;46.484;13.832;2022-10-04T08:35:35;2.27;;;1.70;;
12469;SDS011;36499;46.484;13.832;2022-10-04T08:41:18;2.20;;;1.80;;
12469;SDS011;36499;46.484;13.832;2022-10-04T08:44:57;2.67;;;1.60;;
12469;SDS011;36499;46.484;13.832;2022-10-04T08:48:05;1.67;;;1.40;;
12469;SDS011;36499;46.484;13.832;2022-10-04T09:00:56;2.50;;;2.20;;
12469;SDS011;36499;46.484;13.832;2022-10-04T09:04:13;5.47;;;2.20;;
12469;SDS011;36499;46.484;13.832;2022-10-04T09:10:50;2.73;;;1.50;;
12469;SDS011;36499;46.484;13.832;2022-10-04T09:13:45;4.43;;;1.70;;
12469;SDS011;36499;46.484;13.832;2022-10-04T09:16:44;1.83;;;1.57;;
12469;SDS011;36499;46.484;13.832;2022-10-04T09:19:18;2.27;;;1.80;;
12469;SDS011;36499;46.484;13.832;2022-10-04T09:22:00;5.83;;;1.70;;
12469;SDS011;36499;46.484;13.832;2022-10-04T09:24:55;3.53;;;1.70;;
12469;SDS011;36499;46.484;13.832;2022-10-04T09:28:00;3.03;;;1.50;;
12469;SDS011;36499;46.484;13.832;2022-10-04T09:30:58;1.70;;;1.47;;
12469;SDS011;36499;46.484;13.832;2022-10-04T09:37:48;2.63;;;1.87;;
12469;SDS011;36499;46.484;13.832;2022-10-04T09:40:46;5.93;;;2.00;;
12469;SDS011;36499;46.484;13.832;2022-10-04T09:47:07;4.00;;;1.60;;
12469;SDS011;36499;46.484;13.832;2022-10-04T09:53:34;3.33;;;1.57;;
12469;SDS011;36499;46.484;13.832;2022-10-04T09:56:28;2.67;;;1.67;;
12469;SDS011;36499;46.484;13.832;2022-10-04T09:59:39;2.63;;;1.40;;
12469;SDS011;36499;46.484;13.832;2022-10-04T10:09:23;2.93;;;1.70;;
12469;SDS011;36499;46.484;13.832;2022-10-04T10:12:38;4.70;;;1.80;;
12469;SDS011;36499;46.484;13.832;2022-10-04T10:15:58;2.40;;;1.70;;
12469;SDS011;36499;46.484;13.832;2022-10-04T10:18:46;3.77;;;2.60;;
12469;SDS011;36499;46.484;13.832;2022-10-04T10:21:44;3.07;;;1.50;;
12469;SDS011;36499;46.484;13.832;2022-10-04T10:28:02;3.57;;;1.50;;
12469;SDS011;36499;46.484;13.832;2022-10-04T10:31:10;1.60;;;1.47;;
12469;SDS011;36499;46.484;13.832;2022-10-04T10:34:23;2.80;;;1.53;;
12469;SDS011;36499;46.484;13.832;2022-10-04T10:37:17;2.30;;;1.50;;
12469;SDS011;36499;46.484;13.832;2022-10-04T10:40:16;2.83;;;1.50;;
12469;SDS011;36499;46.484;13.832;2022-10-04T10:46:41;3.67;;;2.10;;
12469;SDS011;36499;46.484;13.832;2022-10-04T10:49:40;1.57;;;1.47;;
12469;SDS011;36499;46.484;13.832;2022-10-04T10:56:17;2.50;;;1.30;;
12469;SDS011;36499;46.484;13.832;2022-10-04T11:02:41;3.10;;;1.70;;
12469;SDS011;36499;46.484;13.832;2022-10-04T11:09:27;1.90;;;1.40;;
12469;SDS011;36499;46.484;13.832;2022-10-04T11:12:14;2.93;;;1.43;;
12469;SDS011;36499;46.484;13.832;2022-10-04T11:22:28;3.10;;;1.50;;
12469;SDS011;36499;46.484;13.832;2022-10-04T11:28:51;2.40;;;1.47;;
12469;SDS011;36499;46.484;13.832;2022-10-04T11:35:07;4.23;;;1.47;;
12469;SDS011;36499;46.484;13.832;2022-10-04T11:38:14;1.67;;;1.40;;
12469;SDS011;36499;46.484;13.832;2022-10-04T11:41:03;1.97;;;1.30;;
12469;SDS011;36499;46.484;13.832;2022-10-04T11:43:48;5.13;;;1.60;;
12469;SDS011;36499;46.484;13.832;2022-10-04T11:46:47;2.97;;;1.70;;
12469;SDS011;36499;46.484;13.832;2022-10-04T11:49:37;2.33;;;1.50;;
12469;SDS011;36499;46.484;13.832;2022-10-04T11:52:29;2.67;;;1.30;;
12469;SDS011;36499;46.484;13.832;2022-10-04T11:55:54;4.30;;;2.10;;
12469;SDS011;36499;46.484;13.832;2022-10-04T11:58:46;2.53;;;1.63;;
12469;SDS011;36499;46.484;13.832;2022-10-04T12:01:36;5.87;;;2.10;;
12469;SDS011;36499;46.484;13.832;2022-10-04T12:04:45;2.90;;;1.67;;
12469;SDS011;36499;46.484;13.832;2022-10-04T12:07:51;20.63;;;2.10;;
12469;SDS011;36499;46.484;13.832;2022-10-04T12:10:33;7.63;;;1.87;;
12469;SDS011;36499;46.484;13.832;2022-10-04T12:16:27;4.33;;;1.80;;
12469;SDS011;36499;46.484;13.832;2022-10-04T12:32:49;2.67;;;1.60;;
12469;SDS011;36499;46.484;13.832;2022-10-04T12:35:33;6.07;;;2.00;;
12469;SDS011;36499;46.484;13.832;2022-10-04T12:41:53;1.70;;;1.57;;
12469;SDS011;36499;46.484;13.832;2022-10-04T12:44:49;4.20;;;2.10;;
12469;SDS011;36499;46.484;13.832;2022-10-04T12:47:50;5.13;;;1.83;;
12469;SDS011;36499;46.484;13.832;2022-10-04T12:50:51;3.47;;;1.80;;
12469;SDS011;36499;46.484;13.832;2022-10-04T12:53:37;3.40;;;1.63;;
12469;SDS011;36499;46.484;13.832;2022-10-04T12:56:20;4.10;;;1.73;;
12469;SDS011;36499;46.484;13.832;2022-10-04T12:59:16;5.60;;;3.33;;
12469;SDS011;36499;46.484;13.832;2022-10-04T13:02:10;6.60;;;2.20;;
12469;SDS011;36499;46.484;13.832;2022-10-04T13:05:05;3.47;;;2.40;;
12469;SDS011;36499;46.484;13.832;2022-10-04T13:08:06;5.10;;;2.67;;
12469;SDS011;36499;46.484;13.832;2022-10-04T13:11:03;2.37;;;1.73;;
12469;SDS011;36499;46.484;13.832;2022-10-04T13:17:00;5.30;;;2.17;;
12469;SDS011;36499;46.484;13.832;2022-10-04T13:19:41;6.33;;;2.07;;
12469;SDS011;36499;46.484;13.832;2022-10-04T13:22:20;3.40;;;1.97;;
12469;SDS011;36499;46.484;13.832;2022-10-04T13:28:02;6.53;;;2.80;;
12469;SDS011;36499;46.484;13.832;2022-10-04T13:30:41;4.00;;;3.00;;
12469;SDS011;36499;46.484;13.832;2022-10-04T13:33:17;11.17;;;5.73;;
12469;SDS011;36499;46.484;13.832;2022-10-04T13:35:58;3.20;;;2.10;;
12469;SDS011;36499;46.484;13.832;2022-10-04T13:39:00;3.40;;;1.90;;
12469;SDS011;36499;46.484;13.832;2022-10-04T13:42:08;3.67;;;2.00;;
12469;SDS011;36499;46.484;13.832;2022-10-04T13:45:07;6.03;;;2.27;;
12469;SDS011;36499;46.484;13.832;2022-10-04T13:48:02;5.37;;;2.17;;
12469;SDS011;36499;46.484;13.832;2022-10-04T13:54:10;3.60;;;1.90;;
12469;SDS011;36499;46.484;13.832;2022-10-04T13:57:16;4.17;;;2.00;;
12469;SDS011;36499;46.484;13.832;2022-10-04T13:59:58;6.67;;;2.37;;
12469;SDS011;36499;46.484;13.832;2022-10-04T14:09:05;3.30;;;2.20;;
12469;SDS011;36499;46.484;13.832;2022-10-04T14:15:38;5.40;;;1.97;;
12469;SDS011;36499;46.484;13.832;2022-10-04T14:18:41;5.93;;;1.80;;
12469;SDS011;36499;46.484;13.832;2022-10-04T14:22:03;2.90;;;2.07;;
12469;SDS011;36499;46.484;13.832;2022-10-04T14:25:23;5.10;;;2.00;;
12469;SDS011;36499;46.484;13.832;2022-10-04T14:35:10;3.50;;;1.63;;
12469;SDS011;36499;46.484;13.832;2022-10-04T14:41:21;6.00;;;1.57;;
12469;SDS011;36499;46.484;13.832;2022-10-04T14:44:49;3.83;;;1.70;;
12469;SDS011;36499;46.484;13.832;2022-10-04T14:51:15;2.47;;;1.50;;
12469;SDS011;36499;46.484;13.832;2022-10-04T14:54:14;2.43;;;1.60;;
12469;SDS011;36499;46.484;13.832;2022-10-04T14:57:00;1.63;;;1.53;;
12469;SDS011;36499;46.484;13.832;2022-10-04T15:02:46;5.07;;;1.80;;
12469;SDS011;36499;46.484;13.832;2022-10-04T15:06:01;6.10;;;1.97;;
12469;SDS011;36499;46.484;13.832;2022-10-04T15:08:49;3.13;;;2.00;;
12469;SDS011;36499;46.484;13.832;2022-10-04T15:11:39;1.63;;;1.53;;
12469;SDS011;36499;46.484;13.832;2022-10-04T15:14:22;4.17;;;1.60;;
12469;SDS011;36499;46.484;13.832;2022-10-04T15:17:02;3.00;;;1.80;;
12469;SDS011;36499;46.484;13.832;2022-10-04T15:19:41;2.50;;;1.27;;
12469;SDS011;36499;46.484;13.832;2022-10-04T15:22:30;4.30;;;1.70;;
12469;SDS011;36499;46.484;13.832;2022-10-04T15:28:06;4.80;;;1.90;;
12469;SDS011;36499;46.484;13.832;2022-10-04T15:31:22;3.07;;;1.60;;
12469;SDS011;36499;46.484;13.832;2022-10-04T15:34:00;4.00;;;1.47;;
12469;SDS011;36499;46.484;13.832;2022-10-04T15:39:55;3.27;;;1.70;;
12469;SDS011;36499;46.484;13.832;2022-10-04T15:49:15;8.70;;;2.03;;
12469;SDS011;36499;46.484;13.832;2022-10-04T15:52:17;2.53;;;1.60;;
12469;SDS011;36499;46.484;13.832;2022-10-04T15:55:21;2.73;;;1.90;;
12469;SDS011;36499;46.484;13.832;2022-10-04T15:58:23;2.07;;;1.70;;
12469;SDS011;36499;46.484;13.832;2022-10-04T16:01:32;5.10;;;1.80;;
12469;SDS011;36499;46.484;13.832;2022-10-04T16:04:31;4.27;;;1.80;;
12469;SDS011;36499;46.484;13.832;2022-10-04T16:07:19;3.20;;;1.80;;
12469;SDS011;36499;46.484;13.832;2022-10-04T16:10:11;3.43;;;1.53;;
12469;SDS011;36499;46.484;13.832;2022-10-04T16:13:17;3.20;;;1.47;;
12469;SDS011;36499;46.484;13.832;2022-10-04T16:19:30;4.00;;;1.63;;
12469;SDS011;36499;46.484;13.832;2022-10-04T16:22:25;1.87;;;1.60;;
12469;SDS011;36499;46.484;13.832;2022-10-04T16:24:56;2.50;;;1.70;;
12469;SDS011;36499;46.484;13.832;2022-10-04T16:27:55;3.43;;;1.63;;
12469;SDS011;36499;46.484;13.832;2022-10-04T16:30:32;4.27;;;2.10;;
12469;SDS011;36499;46.484;13.832;2022-10-04T16:33:21;4.97;;;1.90;;
12469;SDS011;36499;46.484;13.832;2022-10-04T16:36:04;4.10;;;1.90;;
12469;SDS011;36499;46.484;13.832;2022-10-04T16:38:42;2.00;;;1.80;;
12469;SDS011;36499;46.484;13.832;2022-10-04T16:41:28;2.40;;;2.00;;
12469;SDS011;36499;46.484;13.832;2022-10-04T16:44:06;2.30;;;1.87;;
12469;SDS011;36499;46.484;13.832;2022-10-04T16:46:54;5.80;;;3.90;;
12469;SDS011;36499;46.484;13.832;2022-10-04T16:49:27;4.30;;;2.43;;
12469;SDS011;36499;46.484;13.832;2022-10-04T16:52:13;4.20;;;2.17;;
12469;SDS011;36499;46.484;13.832;2022-10-04T16:55:28;5.00;;;2.33;;
12469;SDS011;36499;46.484;13.832;2022-10-04T17:04:48;7.57;;;2.30;;
12469;SDS011;36499;46.484;13.832;2022-10-04T17:07:39;2.60;;;2.03;;
12469;SDS011;36499;46.484;13.832;2022-10-04T17:10:30;3.97;;;2.23;;
12469;SDS011;36499;46.484;13.832;2022-10-04T17:13:06;5.03;;;2.20;;
12469;SDS011;36499;46.484;13.832;2022-10-04T17:15:56;3.07;;;1.87;;
12469;SDS011;36499;46.484;13.832;2022-10-04T17:18:36;2.20;;;1.60;;
12469;SDS011;36499;46.484;13.832;2022-10-04T17:21:21;2.00;;;1.80;;
12469;SDS011;36499;46.484;13.832;2022-10-04T17:24:18;5.80;;;3.20;;
12469;SDS011;36499;46.484;13.832;2022-10-04T17:27:15;4.10;;;2.60;;
12469;SDS011;36499;46.484;13.832;2022-10-04T17:30:16;5.60;;;2.93;;
12469;SDS011;36499;46.484;13.832;2022-10-04T17:33:03;7.63;;;3.00;;
12469;SDS011;36499;46.484;13.832;2022-10-04T17:35:54;4.53;;;3.03;;
12469;SDS011;36499;46.484;13.832;2022-10-04T17:38:40;8.40;;;4.67;;
12469;SDS011;36499;46.484;13.832;2022-10-04T17:41:22;7.63;;;2.87;;
12469;SDS011;36499;46.484;13.832;2022-10-04T17:44:19;7.17;;;3.20;;
12469;SDS011;36499;46.484;13.832;2022-10-04T17:47:07;3.73;;;2.20;;
12469;SDS011;36499;46.484;13.832;2022-10-04T17:49:41;3.10;;;2.33;;
12469;SDS011;36499;46.484;13.832;2022-10-04T17:52:41;4.37;;;3.00;;
12469;SDS011;36499;46.484;13.832;2022-10-04T17:55:32;5.57;;;2.83;;
12469;SDS011;36499;46.484;13.832;2022-10-04T17:58:13;6.57;;;3.90;;
12469;SDS011;36499;46.484;13.832;2022-10-04T18:00:50;9.43;;;5.70;;
12469;SDS011;36499;46.484;13.832;2022-10-04T18:03:30;8.27;;;4.50;;
12469;SDS011;36499;46.484;13.832;2022-10-04T18:06:10;6.30;;;4.57;;
12469;SDS011;36499;46.484;13.832;2022-10-04T18:08:51;10.57;;;4.50;;
12469;SDS011;36499;46.484;13.832;2022-10-04T18:11:29;7.27;;;4.40;;
12469;SDS011;36499;46.484;13.832;2022-10-04T18:14:13;6.30;;;4.30;;
12469;SDS011;36499;46.484;13.832;2022-10-04T18:17:12;4.40;;;3.47;;
12469;SDS011;36499;46.484;13.832;2022-10-04T18:22:55;5.17;;;3.70;;
12469;SDS011;36499;46.484;13.832;2022-10-04T18:25:26;7.23;;;3.80;;
12469;SDS011;36499;46.484;13.832;2022-10-04T18:27:59;6.57;;;5.00;;
12469;SDS011;36499;46.484;13.832;2022-10-04T18:30:51;9.87;;;5.37;;
12469;SDS011;36499;46.484;13.832;2022-10-04T18:33:25;6.93;;;5.07;;
12469;SDS011;36499;46.484;13.832;2022-10-04T18:36:13;7.60;;;5.07;;
12469;SDS011;36499;46.484;13.832;2022-10-04T18:38:45;11.47;;;8.23;;
12469;SDS011;36499;46.484;13.832;2022-10-04T18:41:28;12.47;;;8.03;;
12469;SDS011;36499;46.484;13.832;2022-10-04T18:44:14;5.60;;;4.30;;
12469;SDS011;36499;46.484;13.832;2022-10-04T18:46:47;7.63;;;4.23;;
12469;SDS011;36499;46.484;13.832;2022-10-04T18:49:22;4.70;;;3.73;;
12469;SDS011;36499;46.484;13.832;2022-10-04T18:52:12;6.00;;;3.93;;
12469;SDS011;36499;46.484;13.832;2022-10-04T18:55:10;7.83;;;4.70;;
12469;SDS011;36499;46.484;13.832;2022-10-04T18:57:57;7.70;;;4.73;;
12469;SDS011;36499;46.484;13.832;2022-10-04T19:01:05;7.53;;;5.10;;
12469;SDS011;36499;46.484;13.832;2022-10-04T19:04:11;8.70;;;5.83;;
12469;SDS011;36499;46.484;13.832;2022-10-04T19:06:57;6.97;;;5.00;;
12469;SDS011;36499;46.484;13.832;2022-10-04T19:09:40;7.73;;;4.33;;
12469;SDS011;36499;46.484;13.832;2022-10-04T19:12:49;5.93;;;4.43;;
12469;SDS011;36499;46.484;13.832;2022-10-04T19:15:40;6.40;;;4.20;;
12469;SDS011;36499;46.484;13.832;2022-10-04T19:18:41;6.87;;;5.20;;
12469;SDS011;36499;46.484;13.832;2022-10-04T19:21:36;6.80;;;5.20;;
12469;SDS011;36499;46.484;13.832;2022-10-04T19:24:38;9.13;;;6.03;;
12469;SDS011;36499;46.484;13.832;2022-10-04T19:27:22;7.43;;;6.20;;
12469;SDS011;36499;46.484;13.832;2022-10-04T19:30:09;8.53;;;6.80;;
12469;SDS011;36499;46.484;13.832;2022-10-04T19:32:55;7.63;;;5.30;;